Aérodrome :
LOGIN :

S'inscrire | Disclaimer

   EN    FR    IT 

 










Légende :    VFR   VFR Marginal   IFR   IFR Intensif   IFR Très Intensif
Visi : 
Plafond : 
>= 8 km
>= 3000ft
5 à 8 km
1000 à 3000 ft
1500m à 5 km
500 à 1000 ft
800 à 1500m
200 à 500 ft
< 800m
< 200 ft
Symboles :   Orages  Brouillard  Fortes neiges  Fortes précipitations  Vent > 20 kt
SIGMETs :   Divers  Orages  Givrage  Turbulence  Onde Orograph.  Cendres Volcan.







- Altitude de l'aérodrome : 236 ft
- Code IATA : MMX


ESMS - Malmö Sturup

DERNIER METAR :
  • 190850Z 25011KT 6000 BR SCT012 BKN016 BKN035 06/05 Q1007 R17/09//95

METARs EXPIRÉS :
  • 190820Z 25007KT 3100 BR FEW024 SCT053 06/05 Q1007 R17/09//95
  • 190750Z 26010KT 3700 -RA BKN006 05/05 Q1007 R17/09//95
  • 190720Z 27012KT 2700 -RA BKN006 05/05 Q1007 R17/09//95
  • 190650Z 25010KT 4100 -DZ SCT009 BKN012 05/04 Q1007 R17/09//95
  • 190620Z 25010KT 5000 -DZ VV029 06/04 Q1007 R17/09//95

TAF AMD TAF ESMS
Valide du 19 à 07h jusqu'au 20 à 06h UTC


190701Z 1907/2006 23010KT 5000 SCT008 BKN010
BECMG 1907/1908 2500 RADZ BR SCT010 BKN030
BECMG 1908/1910 9999 NSW BKN006
BECMG 1910/1912 BKN020
TEMPO 1912/1917 27015G28KT SHRA BKN008 SCT020CB
TEMPO 1917/2001 27015G25KT -SHRA BKN012 SCT020TCU
Pas de NOTAMs connus pour ce terrain.



MET'MAP, la Météo Aéronautique d'un coup d'oeil ! - Copyright ORBIFLY Décembre 2007 - Disclaimer

ORBIFLY MET'MAP TEAM :

Programmation & Développement : Alexandra Zaïnal
Conception & Développement : Baudouin d'Aumeries
Co-Programmation & Développement : Marc-Olivier Méhu
Soutien technique & logistique : Manuel Goepfert

Contact : metmap@orbifly.com




SOURCES & CREDITS :

   NOAA